Maratha Paramount — V7SE4 — position and weather

sailwx.info

Track history (hours):
 
Tides and Currents Weather Stations Pressure Air Temp Water Temp Dewpoint Dewpoint Depression Visibility Wind Speed Wind Dir Waves Ship Positions

Maratha Paramount

Last reported at 2018-Mar-30 12:26 UTC. Time now 2018-Apr-24 14:26 UTC.
Position N 33°42' E 135°04'.
Warning: this ship's position is 25 days out of date.

Length 175 m; draft 7.6 m.

Type: Cargo ship. MMSI: 538003632.

Date/timePositionNaut miles runAvg speedWind from/ knotsBaromVisibWave heightAir tempDewpointWater temp
2018-Mar-30 12:26N 33°42' E 135°04'614.5
2018-Mar-30 12:00N 33°47' E 134°59'714.3
2018-Mar-30 11:30N 33°54' E 134°58'714.2
2018-Mar-30 11:00N 34°01' E 134°57'714.1
2018-Mar-30 10:30N 34°08' E 134°58'611.9
2018-Mar-30 10:00N 34°14' E 134°58'510.5
2018-Mar-30 09:31N 34°19' E 134°59'612.5
2018-Mar-30 09:00N 34°24' E 135°03'713.6
2018-Mar-30 08:31N 34°28' E 135°09'713.5
2018-Mar-30 08:00N 34°33' E 135°16'612.3
2018-Mar-30 07:30N 34°37' E 135°21'3 5.6
2018-Mar-30 06:59N 34°38' E 135°25'0 0.0
2018-Mar-30 06:29N 34°38' E 135°25'0 0.0
2018-Mar-30 05:59N 34°38' E 135°25'0 0.0
2018-Mar-30 05:29N 34°38' E 135°25'0 0.0
2018-Mar-30 04:59N 34°38' E 135°25'0 0.0
2018-Mar-30 04:29N 34°38' E 135°25'0 0.0
2018-Mar-30 03:59N 34°38' E 135°25'0 0.0
2018-Mar-30 03:29N 34°38' E 135°25'0 0.0
2018-Mar-30 02:59N 34°38' E 135°25'0 0.0
2018-Mar-30 02:29N 34°38' E 135°25'0 0.0
2018-Mar-30 01:59N 34°38' E 135°25'0 0.0
2018-Mar-30 01:29N 34°38' E 135°25'0 0.0
2018-Mar-30 00:59N 34°38' E 135°25'0 0.0
2018-Mar-30 00:29N 34°38' E 135°25'0 0.0
2018-Mar-29 23:59N 34°38' E 135°25'0 0.0
2018-Mar-29 23:29N 34°38' E 135°25'0 0.0
2018-Mar-29 22:59N 34°38' E 135°25'0 0.0
2018-Mar-29 22:29N 34°38' E 135°25'0 0.0
2018-Mar-29 21:59N 34°38' E 135°25'0 0.0
2018-Mar-29 21:29N 34°38' E 135°25'0 0.0
2018-Mar-29 20:59N 34°38' E 135°25'0 0.0
2018-Mar-29 20:29N 34°38' E 135°25'0 0.0
2018-Mar-29 19:59N 34°38' E 135°25'0 0.0
2018-Mar-29 19:29N 34°38' E 135°25'0 0.0
2018-Mar-29 18:59N 34°38' E 135°25'0 0.0
2018-Mar-29 18:29N 34°38' E 135°25'0 0.0
2018-Mar-29 17:59N 34°38' E 135°25'0 0.0
2018-Mar-29 17:29N 34°38' E 135°25'0 0.0
2018-Mar-29 16:59N 34°38' E 135°25'0 0.0
2018-Mar-29 16:29N 34°38' E 135°25'0 0.0
2018-Mar-29 15:59N 34°38' E 135°25'0 0.0
2018-Mar-29 15:29N 34°38' E 135°25'0 0.0
2018-Mar-29 14:59N 34°38' E 135°25'0 0.0
2018-Mar-29 14:29N 34°38' E 135°25'0 0.0
2018-Mar-29 13:59N 34°38' E 135°25'0 0.0
2018-Mar-29 13:29N 34°38' E 135°25'0 0.0
2018-Mar-29 12:59N 34°38' E 135°25'0 0.0
2018-Mar-29 12:29N 34°38' E 135°25'0 0.0
2018-Mar-29 11:59N 34°38' E 135°25'0 0.0
2018-Mar-29 11:29N 34°38' E 135°25'0 0.0
2018-Mar-29 10:59N 34°38' E 135°25'0 0.0
2018-Mar-29 10:29N 34°38' E 135°25'0 0.0
2018-Mar-29 09:59N 34°38' E 135°25'0 0.0
2018-Mar-29 09:29N 34°38' E 135°25'0 0.0
2018-Mar-29 08:59N 34°38' E 135°25'0 0.0
2018-Mar-29 08:29N 34°38' E 135°25'0 0.0
2018-Mar-29 07:59N 34°38' E 135°25'0 0.2
2018-Mar-29 07:30N 34°38' E 135°25'2 3.5
2018-Mar-29 07:01N 34°38' E 135°22'4 8.5
2018-Mar-29 06:30N 34°35' E 135°19'611.2
2018-Mar-29 06:00N 34°31' E 135°14'612.5
2018-Mar-29 05:30N 34°26' E 135°09'612.6
2018-Mar-29 05:00N 34°21' E 135°04'611.5
2018-Mar-29 04:31N 34°17' E 134°59'510.8
2018-Mar-29 04:00N 34°12' E 134°59'4 8.3
2018-Mar-29 03:30N 34°07' E 134°59'3 7.0
2018-Mar-29 03:01N 34°04' E 134°58'3 6.5
2018-Mar-29 02:30N 34°01' E 134°58'510.6
2018-Mar-29 02:00N 33°56' E 134°57'510.8
2018-Mar-29 01:31N 33°50' E 134°58'611.0
2018-Mar-29 01:00N 33°45' E 134°57'610.7
2018-Mar-29 00:26N 33°41' E 134°52'4 8.5
2018-Mar-28 23:59N 33°37' E 134°51'611.3
2018-Mar-28 23:28N 33°35' E 134°57'9110.2
2018-Mar-28 14:34N 33°60' E 136°43'112.8
2018-Mar-28 14:28N 34°01' E 136°44'1812.7
2018-Mar-28 13:04N 34°13' E 136°60'112.9
2018-Mar-28 12:59N 34°13' E 137°01'611.3
2018-Mar-28 12:30N 34°19' E 137°03'611.9
2018-Mar-28 11:58N 34°25' E 137°04'611.8
2018-Mar-28 11:28N 34°31' E 137°03'510.8
2018-Mar-28 10:58N 34°35' E 136°58'612.9
2018-Mar-28 10:30N 34°38' E 136°52'612.9
2018-Mar-28 10:00N 34°43' E 136°48'613.1
2018-Mar-28 09:30N 34°50' E 136°46'712.9
2018-Mar-28 09:00N 34°56' E 136°46'611.2
2018-Mar-28 08:30N 35°01' E 136°50'3 5.7
2018-Mar-28 08:00N 35°03' E 136°53'0 0.3
2018-Mar-28 07:30N 35°03' E 136°53'0 0.0
2018-Mar-28 07:00N 35°03' E 136°53'0 0.0
2018-Mar-28 06:29N 35°03' E 136°53'0 0.0
2018-Mar-28 05:59N 35°03' E 136°53'0 0.0
2018-Mar-28 05:29N 35°03' E 136°53'0 0.0
2018-Mar-28 04:59N 35°03' E 136°53'0 0.0
2018-Mar-28 04:29N 35°03' E 136°53'0 0.0
2018-Mar-28 03:59N 35°03' E 136°53'0 0.0
2018-Mar-28 03:29N 35°03' E 136°53'0 0.0
2018-Mar-28 02:53N 35°03' E 136°53'0 0.0
2018-Mar-28 02:20N 35°03' E 136°53'0 0.0
2018-Mar-28 01:59N 35°03' E 136°53'0 0.0
2018-Mar-28 01:26N 35°03' E 136°53'0 0.0
2018-Mar-28 00:59N 35°03' E 136°53'0 0.0
2018-Mar-28 00:29N 35°03' E 136°53'0 0.0
2018-Mar-27 23:59N 35°03' E 136°53'0 0.0
2018-Mar-27 23:29N 35°03' E 136°53'0 0.0
2018-Mar-27 22:59N 35°03' E 136°53'0 0.0
2018-Mar-27 22:29N 35°03' E 136°53'0 0.0
2018-Mar-27 21:59N 35°03' E 136°53'0 0.0
2018-Mar-27 21:26N 35°03' E 136°53'0 0.0
2018-Mar-27 20:59N 35°03' E 136°53'0 0.0
2018-Mar-27 20:29N 35°03' E 136°53'0 0.0
2018-Mar-27 19:59N 35°03' E 136°53'0 0.0
2018-Mar-27 19:29N 35°03' E 136°53'0 0.0
2018-Mar-27 18:59N 35°03' E 136°53'0 0.0
2018-Mar-27 18:29N 35°03' E 136°53'0 0.0
2018-Mar-27 17:59N 35°03' E 136°53'0 0.0
2018-Mar-27 17:29N 35°03' E 136°53'0 0.0
2018-Mar-27 16:59N 35°03' E 136°53'0 0.0
2018-Mar-27 16:29N 35°03' E 136°53'0 0.0
2018-Mar-27 15:59N 35°03' E 136°53'0 0.0
2018-Mar-27 15:29N 35°03' E 136°53'0 0.0
2018-Mar-27 14:59N 35°03' E 136°53'0 0.0
2018-Mar-27 14:29N 35°03' E 136°53'0 0.0
2018-Mar-27 13:59N 35°03' E 136°53'0 0.0
2018-Mar-27 13:29N 35°03' E 136°53'0 0.0
2018-Mar-27 12:59N 35°03' E 136°53'0 0.0
2018-Mar-27 12:29N 35°03' E 136°53'0 0.0
2018-Mar-27 11:59N 35°03' E 136°53'0 0.0
2018-Mar-27 11:29N 35°03' E 136°53'0 0.0
2018-Mar-27 10:59N 35°03' E 136°53'0 0.0
2018-Mar-27 10:29N 35°03' E 136°53'0 0.0
2018-Mar-27 09:53N 35°03' E 136°53'0 0.0
2018-Mar-27 09:29N 35°03' E 136°53'0 0.0
2018-Mar-27 08:59N 35°03' E 136°53'0 0.0
2018-Mar-27 08:29N 35°03' E 136°53'0 0.0
2018-Mar-27 07:59N 35°03' E 136°53'0 0.0
2018-Mar-27 07:29N 35°03' E 136°53'0 0.0
2018-Mar-27 06:56N 35°03' E 136°53'0 0.0
2018-Mar-27 06:29N 35°03' E 136°53'0 0.0
2018-Mar-27 05:59N 35°03' E 136°53'0 0.0
2018-Mar-27 05:29N 35°03' E 136°53'0 0.0
2018-Mar-27 04:56N 35°03' E 136°53'0 0.0
2018-Mar-27 04:29N 35°03' E 136°53'0 0.0
2018-Mar-27 03:59N 35°03' E 136°53'0 0.0
2018-Mar-27 03:29N 35°03' E 136°53'0 0.0
2018-Mar-27 02:59N 35°03' E 136°53'0 0.0
2018-Mar-27 02:26N 35°03' E 136°53'0 0.0
2018-Mar-27 01:59N 35°03' E 136°53'0 0.0
2018-Mar-27 01:29N 35°03' E 136°53'0 0.0
2018-Mar-27 00:59N 35°03' E 136°53'0 0.0
2018-Mar-27 00:29N 35°03' E 136°53'0 0.0
2018-Mar-26 23:59N 35°03' E 136°53'0 0.0
2018-Mar-26 23:29N 35°03' E 136°53'0 0.0
2018-Mar-26 22:56N 35°03' E 136°53'0 0.0
2018-Mar-26 22:29N 35°03' E 136°53'0 0.0
2018-Mar-26 21:59N 35°03' E 136°53'0 0.0
2018-Mar-26 21:29N 35°03' E 136°53'0 0.0
2018-Mar-26 20:59N 35°03' E 136°53'0 0.0
2018-Mar-26 20:29N 35°03' E 136°53'0 0.0
2018-Mar-26 19:59N 35°03' E 136°53'0 0.0
2018-Mar-26 19:29N 35°03' E 136°53'0 0.0
2018-Mar-26 18:59N 35°03' E 136°53'0 0.0
2018-Mar-26 18:29N 35°03' E 136°53'0 0.0
2018-Mar-26 17:59N 35°03' E 136°53'0 0.0
2018-Mar-26 17:29N 35°03' E 136°53'0 0.0
2018-Mar-26 16:56N 35°03' E 136°53'0 0.0
2018-Mar-26 16:29N 35°03' E 136°53'0 0.0
2018-Mar-26 15:59N 35°03' E 136°53'0 0.0
2018-Mar-26 15:29N 35°03' E 136°53'0 0.0
2018-Mar-26 14:59N 35°03' E 136°53'0 0.0
2018-Mar-26 14:29N 35°03' E 136°53'0 0.0
2018-Mar-26 13:59N 35°03' E 136°53'0 0.0
2018-Mar-26 13:26N 35°03' E 136°53'0 0.0
2018-Mar-26 12:59N 35°03' E 136°53'0 0.0
2018-Mar-26 12:29N 35°03' E 136°53'0 0.0
2018-Mar-26 11:59N 35°03' E 136°53'0 0.0
2018-Mar-26 11:29N 35°03' E 136°53'0 0.0
2018-Mar-26 10:59N 35°03' E 136°53'0 0.0
2018-Mar-26 10:29N 35°03' E 136°53'0 0.0
2018-Mar-26 09:59N 35°03' E 136°53'0 0.0
2018-Mar-26 09:29N 35°03' E 136°53'0 0.0
2018-Mar-26 08:59N 35°03' E 136°53'0 0.0
2018-Mar-26 08:29N 35°03' E 136°53'0 0.0
2018-Mar-26 07:59N 35°03' E 136°53'0 0.0
2018-Mar-26 07:29N 35°03' E 136°53'0 0.0
2018-Mar-26 06:59N 35°03' E 136°53'0 0.0
2018-Mar-26 06:29N 35°03' E 136°53'0 0.0
2018-Mar-26 05:59N 35°03' E 136°53'0 0.0
2018-Mar-26 05:29N 35°03' E 136°53'0 0.0
2018-Mar-26 04:59N 35°03' E 136°53'0 0.0
2018-Mar-26 04:29N 35°03' E 136°53'0 0.0
2018-Mar-26 03:59N 35°03' E 136°53'0 0.0
2018-Mar-26 03:29N 35°03' E 136°53'0 0.0
2018-Mar-26 02:59N 35°03' E 136°53'0 0.0
2018-Mar-26 02:29N 35°03' E 136°53'0 0.0
2018-Mar-26 01:59N 35°03' E 136°53'0 0.0
2018-Mar-26 01:29N 35°03' E 136°53'0 0.0
2018-Mar-26 00:59N 35°03' E 136°53'0 0.0
2018-Mar-26 00:29N 35°03' E 136°53'0 0.0
2018-Mar-25 23:59N 35°03' E 136°53'0 0.0
2018-Mar-25 23:29N 35°03' E 136°53'0 0.0
2018-Mar-25 22:59N 35°03' E 136°53'0 0.0
2018-Mar-25 22:29N 35°03' E 136°53'0 0.0
2018-Mar-25 21:59N 35°03' E 136°53'0 0.0
2018-Mar-25 21:29N 35°03' E 136°53'0 0.0
2018-Mar-25 20:59N 35°03' E 136°53'0 0.0
2018-Mar-25 20:29N 35°03' E 136°53'0 0.0
2018-Mar-25 19:59N 35°03' E 136°53'0 0.0
2018-Mar-25 19:29N 35°03' E 136°53'0 0.0
2018-Mar-25 18:59N 35°03' E 136°53'0 0.0
2018-Mar-25 18:29N 35°03' E 136°53'0 0.0
2018-Mar-25 17:59N 35°03' E 136°53'0 0.0
2018-Mar-25 17:29N 35°03' E 136°53'0 0.0
2018-Mar-25 16:59N 35°03' E 136°53'0 0.0
2018-Mar-25 16:29N 35°03' E 136°53'0 0.0
2018-Mar-25 15:59N 35°03' E 136°53'0 0.0
2018-Mar-25 15:29N 35°03' E 136°53'0 0.0
2018-Mar-25 14:59N 35°03' E 136°53'0 0.0
2018-Mar-25 14:26N 35°03' E 136°53'0 0.0
2018-Mar-25 13:59N 35°03' E 136°53'0 0.0
2018-Mar-25 13:29N 35°03' E 136°53'0 0.0
2018-Mar-25 12:59N 35°03' E 136°53'0 0.0
2018-Mar-25 12:29N 35°03' E 136°53'0 0.0
2018-Mar-25 11:59N 35°03' E 136°53'0 0.0
2018-Mar-25 11:29N 35°03' E 136°53'0 0.0
2018-Mar-25 10:59N 35°03' E 136°53'0 0.0
2018-Mar-25 10:29N 35°03' E 136°53'0 0.0
2018-Mar-25 09:59N 35°03' E 136°53'0 0.0
2018-Mar-25 09:29N 35°03' E 136°53'0 0.0
2018-Mar-25 08:59N 35°03' E 136°53'0 0.0
2018-Mar-25 08:29N 35°03' E 136°53'0 0.0
2018-Mar-25 07:59N 35°03' E 136°53'0 0.0
2018-Mar-25 07:29N 35°03' E 136°53'0 0.0
2018-Mar-25 06:59N 35°03' E 136°53'0 0.0
2018-Mar-25 06:29N 35°03' E 136°53'0 0.0
2018-Mar-25 05:59N 35°03' E 136°53'0 0.0
2018-Mar-25 05:29N 35°03' E 136°53'0 0.0
2018-Mar-25 04:59N 35°03' E 136°53'0 0.0
2018-Mar-25 04:29N 35°03' E 136°53'0 0.0
2018-Mar-25 03:59N 35°03' E 136°53'0 0.0
2018-Mar-25 03:29N 35°03' E 136°53'0 0.0
2018-Mar-25 02:59N 35°03' E 136°53'0 0.0
2018-Mar-25 02:29N 35°03' E 136°53'0 0.0
2018-Mar-25 01:59N 35°03' E 136°53'0 0.0
2018-Mar-25 01:29N 35°03' E 136°53'0 0.0
2018-Mar-25 00:59N 35°03' E 136°53'0 0.0
2018-Mar-25 00:29N 35°03' E 136°53'0 0.1
2018-Mar-24 23:59N 35°03' E 136°53'0 0.1
2018-Mar-24 23:28N 35°03' E 136°53'0 0.0
2018-Mar-24 22:58N 35°03' E 136°53'0 0.0
2018-Mar-24 22:28N 35°03' E 136°53'0 0.0
2018-Mar-24 21:58N 35°03' E 136°53'0 0.0
2018-Mar-24 21:28N 35°03' E 136°53'0 0.0
2018-Mar-24 20:58N 35°03' E 136°53'0 0.0
2018-Mar-24 20:28N 35°03' E 136°53'0 0.0
2018-Mar-24 19:58N 35°03' E 136°53'0 0.0
2018-Mar-24 19:28N 35°03' E 136°53'0 0.0
2018-Mar-24 18:58N 35°03' E 136°53'0 0.0
2018-Mar-24 18:28N 35°03' E 136°53'0 0.0
2018-Mar-24 17:58N 35°03' E 136°53'0 0.0
2018-Mar-24 17:28N 35°03' E 136°53'0 0.0
2018-Mar-24 16:58N 35°03' E 136°53'0 0.0
2018-Mar-24 16:28N 35°03' E 136°53'0 0.0
2018-Mar-24 15:58N 35°03' E 136°53'0 0.0
2018-Mar-24 15:28N 35°03' E 136°53'0 0.0
2018-Mar-24 14:58N 35°03' E 136°53'0 0.1
2018-Mar-24 14:28N 35°03' E 136°53'0 0.0
2018-Mar-24 13:58N 35°03' E 136°53'0 0.0
2018-Mar-24 13:28N 35°03' E 136°53'0 0.0
2018-Mar-24 12:58N 35°03' E 136°53'0 0.0
2018-Mar-24 12:28N 35°03' E 136°53'0 0.0
2018-Mar-24 11:58N 35°03' E 136°53'0 0.0
2018-Mar-24 11:28N 35°03' E 136°53'0 0.0
2018-Mar-24 10:58N 35°03' E 136°53'0 0.0
2018-Mar-24 10:28N 35°03' E 136°53'0 0.0
2018-Mar-24 09:58N 35°03' E 136°53'0 0.0
2018-Mar-24 09:28N 35°03' E 136°53'0 0.0
2018-Mar-24 08:55N 35°03' E 136°53'0 0.0
2018-Mar-24 08:28N 35°03' E 136°53'0 0.0
2018-Mar-24 07:58N 35°03' E 136°53'0 0.0
2018-Mar-24 07:28N 35°03' E 136°53'0 0.0
2018-Mar-24 06:58N 35°03' E 136°53'0 0.0
2018-Mar-24 06:28N 35°03' E 136°53'0 0.0
2018-Mar-24 05:58N 35°03' E 136°53'0 0.0
2018-Mar-24 05:25N 35°03' E 136°53'0 0.0
2018-Mar-24 04:58N 35°03' E 136°53'0 0.0
2018-Mar-24 04:28N 35°03' E 136°53'0 0.0
2018-Mar-24 03:58N 35°03' E 136°53'0 0.0
2018-Mar-24 03:28N 35°03' E 136°53'0 0.0
2018-Mar-24 02:55N 35°03' E 136°53'0 0.0
2018-Mar-24 02:28N 35°03' E 136°53'0 0.0
2018-Mar-24 01:58N 35°03' E 136°53'0 0.0
2018-Mar-24 01:28N 35°03' E 136°53'0 0.0
2018-Mar-24 00:58N 35°03' E 136°53'0 0.0
2018-Mar-24 00:28N 35°03' E 136°53'0 0.0
2018-Mar-23 23:58N 35°03' E 136°53'0 0.0
2018-Mar-23 23:28N 35°03' E 136°53'0 0.0
2018-Mar-23 22:58N 35°03' E 136°53'0 0.0
2018-Mar-23 22:28N 35°03' E 136°53'0 0.0
2018-Mar-23 21:58N 35°03' E 136°53'0 0.0
2018-Mar-23 21:28N 35°03' E 136°53'0 0.0
2018-Mar-23 20:58N 35°03' E 136°53'0 0.0
2018-Mar-23 20:28N 35°03' E 136°53'0 0.0
2018-Mar-23 19:58N 35°03' E 136°53'0 0.0
2018-Mar-23 19:28N 35°03' E 136°53'0 0.0
2018-Mar-23 18:58N 35°03' E 136°53'0 0.0
2018-Mar-23 18:28N 35°03' E 136°53'0 0.0
2018-Mar-23 17:58N 35°03' E 136°53'0 0.0
2018-Mar-23 17:28N 35°03' E 136°53'0 0.0
2018-Mar-23 16:58N 35°03' E 136°53'0 0.0
2018-Mar-23 16:28N 35°03' E 136°53'0 0.0
2018-Mar-23 15:58N 35°03' E 136°53'0 0.0
2018-Mar-23 15:28N 35°03' E 136°53'0 0.0
2018-Mar-23 14:58N 35°03' E 136°53'0 0.0
2018-Mar-23 14:28N 35°03' E 136°53'0 0.0
2018-Mar-23 13:58N 35°03' E 136°53'0 0.0
2018-Mar-23 13:28N 35°03' E 136°53'0 0.0
2018-Mar-23 12:58N 35°03' E 136°53'0 0.0
2018-Mar-23 12:28N 35°03' E 136°53'0 0.0
2018-Mar-23 11:58N 35°03' E 136°53'0 0.0
2018-Mar-23 11:28N 35°03' E 136°53'0 0.0
2018-Mar-23 10:58N 35°03' E 136°53'0 0.2
2018-Mar-23 10:31N 35°03' E 136°53'3 6.1
2018-Mar-23 10:00N 35°00' E 136°50'611.3
2018-Mar-23 09:30N 34°55' E 136°47'510.2
2018-Mar-23 09:00N 34°50' E 136°47'612.1
2018-Mar-23 08:30N 34°45' E 136°50'612.4
2018-Mar-23 08:00N 34°39' E 136°54'612.4
2018-Mar-23 07:30N 34°35' E 136°59'611.6
2018-Mar-23 06:58N 34°32' E 137°06'5 6.8
2018-Mar-23 06:16N 34°29' E 137°10'2 4.9
2018-Mar-23 05:49N 34°28' E 137°13'2 4.8
2018-Mar-23 05:29N 34°27' E 137°15'3 5.5
2018-Mar-23 04:55N 34°28' E 137°18'2510.3
2018-Mar-23 02:30N 34°27' E 137°48'1011.8
2018-Mar-23 01:37N 34°27' E 138°01'412.4
2018-Mar-23 01:20N 34°27' E 138°05'512.2
2018-Mar-23 00:55N 34°27' E 138°11'612.2
2018-Mar-23 00:26N 34°28' E 138°19'611.6
2018-Mar-22 23:53N 34°27' E 138°26'510.8
2018-Mar-22 23:24N 34°27' E 138°33'410.0
2018-Mar-22 23:00N 34°27' E 138°37'510.0
2018-Mar-22 22:28N 34°27' E 138°44'4 9.7
2018-Mar-22 22:01N 34°27' E 138°49'5 9.8
2018-Mar-22 21:30N 34°29' E 138°55'510.0
2018-Mar-22 21:00N 34°32' E 138°60'5 9.5
2018-Mar-22 20:25N 34°36' E 139°04'410.4
2018-Mar-22 20:00N 34°40' E 139°07'610.9
2018-Mar-22 19:25N 34°45' E 139°12'511.2
2018-Mar-22 18:59N 34°48' E 139°16'510.2
2018-Mar-22 18:30N 34°52' E 139°20'510.2
2018-Mar-22 18:00N 34°55' E 139°25'510.7
2018-Mar-22 17:31N 34°57' E 139°31'611.0
2018-Mar-22 16:59N 35°00' E 139°37'612.0
2018-Mar-22 16:30N 35°04' E 139°42'612.6
2018-Mar-22 16:01N 35°10' E 139°45'510.3
2018-Mar-22 15:30N 35°15' E 139°46'611.6
2018-Mar-22 15:00N 35°20' E 139°43'511.1
2018-Mar-22 14:30N 35°25' E 139°44'611.5
2018-Mar-22 14:00N 35°28' E 139°50'611.5
2018-Mar-22 13:30N 35°32' E 139°56'4 7.9
2018-Mar-22 13:01N 35°34' E 139°60'0 0.1
2018-Mar-22 12:28N 35°34' E 139°60'0 0.0
2018-Mar-22 11:58N 35°34' E 139°60'0 0.0
2018-Mar-22 11:28N 35°34' E 139°60'0 0.0
2018-Mar-22 10:58N 35°34' E 139°60'0 0.0
2018-Mar-22 10:28N 35°34' E 139°60'0 0.0
2018-Mar-22 09:58N 35°34' E 139°60'0 0.0
2018-Mar-22 09:28N 35°34' E 139°60'0 0.0
2018-Mar-22 08:58N 35°34' E 139°60'0 0.0
2018-Mar-22 08:28N 35°34' E 139°60'0 0.0
2018-Mar-22 07:58N 35°34' E 139°60'0 0.0
2018-Mar-22 07:28N 35°34' E 139°60'0 0.0
2018-Mar-22 06:58N 35°34' E 139°60'0 0.0
2018-Mar-22 06:28N 35°34' E 139°60'0 0.0
2018-Mar-22 05:58N 35°34' E 139°60'0 0.0
2018-Mar-22 05:28N 35°34' E 139°60'0 0.0
2018-Mar-22 04:58N 35°34' E 139°60'0 0.0
2018-Mar-22 04:28N 35°34' E 139°60'0 0.0
2018-Mar-22 03:58N 35°34' E 139°60'0 0.0
2018-Mar-22 03:28N 35°34' E 139°60'0 0.1
2018-Mar-22 02:58N 35°34' E 139°60'0 0.0
2018-Mar-22 02:28N 35°34' E 139°60'0 0.0
2018-Mar-22 01:58N 35°34' E 139°60'0 0.0
2018-Mar-22 01:28N 35°34' E 139°60'0 0.0
2018-Mar-22 00:58N 35°34' E 139°60'0 0.0
2018-Mar-22 00:28N 35°34' E 139°60'0 0.0
2018-Mar-21 23:58N 35°34' E 139°60'0 0.0
2018-Mar-21 23:28N 35°34' E 139°60'0 0.1
2018-Mar-21 22:58N 35°34' E 139°60'0 0.0
2018-Mar-21 22:28N 35°34' E 139°60'0 0.0
2018-Mar-21 21:58N 35°34' E 139°60'0 0.0
2018-Mar-21 21:28N 35°34' E 139°60'0 0.1
2018-Mar-21 20:58N 35°34' E 139°60'0 0.0
2018-Mar-21 20:28N 35°34' E 139°60'0 0.0
2018-Mar-21 19:58N 35°34' E 139°60'0 0.1
2018-Mar-21 19:28N 35°34' E 139°60'0 0.0
2018-Mar-21 18:58N 35°34' E 139°60'0 0.0
2018-Mar-21 18:28N 35°34' E 139°60'0 0.0
2018-Mar-21 17:58N 35°34' E 139°60'0 0.0
2018-Mar-21 17:28N 35°34' E 139°60'0 0.1
2018-Mar-21 16:58N 35°34' E 139°59'0 0.0
2018-Mar-21 16:28N 35°34' E 139°59'0 0.0
2018-Mar-21 15:58N 35°34' E 139°59'0 0.0
2018-Mar-21 15:28N 35°34' E 139°59'0 0.1
2018-Mar-21 14:58N 35°34' E 139°60'0 0.1
2018-Mar-21 14:28N 35°34' E 139°59'0 0.1
2018-Mar-21 13:58N 35°34' E 139°60'0 0.1
2018-Mar-21 13:28N 35°34' E 139°59'0 0.0
2018-Mar-21 12:58N 35°34' E 139°59'0 0.1
2018-Mar-21 12:28N 35°34' E 139°60'0 0.1
2018-Mar-21 11:58N 35°34' E 139°59'0 0.1
2018-Mar-21 11:28N 35°34' E 139°60'0 0.1
2018-Mar-21 10:58N 35°34' E 139°59'0 0.0
2018-Mar-21 10:28N 35°34' E 139°59'0 0.0
2018-Mar-21 09:58N 35°34' E 139°59'0 0.0
2018-Mar-21 09:28N 35°34' E 139°59'0 0.1
2018-Mar-21 08:58N 35°34' E 139°60'0 0.1
2018-Mar-21 08:30N 35°34' E 139°59'0 0.1
2018-Mar-21 08:00N 35°34' E 139°60'0 0.1
2018-Mar-21 07:30N 35°34' E 139°59'0 0.0
2018-Mar-21 07:00N 35°34' E 139°59'0 0.1
2018-Mar-21 06:30N 35°34' E 139°60'0 0.1
2018-Mar-21 06:00N 35°34' E 139°59'0 0.0
2018-Mar-21 05:30N 35°34' E 139°59'0 0.0
2018-Mar-21 05:00N 35°34' E 139°59'0 0.1
2018-Mar-21 04:30N 35°34' E 139°59'0 0.2
2018-Mar-21 04:00N 35°34' E 139°60'1 2.8
2018-Mar-21 03:30N 35°34' E 140°01'4 8.6
2018-Mar-21 03:01N 35°35' E 140°06'0 0.5
2018-Mar-21 02:29N 35°35' E 140°06'0 0.0
2018-Mar-21 01:59N 35°35' E 140°06'0 0.0
2018-Mar-21 01:29N 35°35' E 140°06'0 0.0
2018-Mar-21 00:59N 35°35' E 140°06'0 0.0
2018-Mar-21 00:29N 35°35' E 140°06'0 0.0
2018-Mar-20 23:59N 35°35' E 140°06'0 0.0
2018-Mar-20 23:29N 35°35' E 140°06'0 0.0
2018-Mar-20 22:59N 35°35' E 140°06'0 0.0
2018-Mar-20 22:29N 35°35' E 140°06'0 0.0
2018-Mar-20 21:59N 35°35' E 140°06'0 0.0
2018-Mar-20 21:29N 35°35' E 140°06'0 0.0
2018-Mar-20 20:59N 35°35' E 140°06'0 0.0
2018-Mar-20 20:29N 35°35' E 140°06'0 0.0
2018-Mar-20 19:59N 35°35' E 140°06'0 0.0
2018-Mar-20 19:29N 35°35' E 140°06'0 0.0
2018-Mar-20 18:59N 35°35' E 140°06'0 0.0
2018-Mar-20 18:29N 35°35' E 140°06'0 0.0
2018-Mar-20 17:59N 35°35' E 140°06'0 0.0
2018-Mar-20 17:29N 35°35' E 140°06'0 0.0
2018-Mar-20 16:59N 35°35' E 140°06'0 0.0
2018-Mar-20 16:29N 35°35' E 140°06'0 0.0
2018-Mar-20 15:59N 35°35' E 140°06'0 0.0
2018-Mar-20 15:29N 35°35' E 140°06'0 0.0
2018-Mar-20 14:50N 35°35' E 140°06'0 0.0
2018-Mar-20 14:29N 35°35' E 140°06'0 0.0
2018-Mar-20 13:59N 35°35' E 140°06'0 0.0
2018-Mar-20 13:29N 35°35' E 140°06'0 0.0
2018-Mar-20 12:59N 35°35' E 140°06'0 0.0
2018-Mar-20 12:29N 35°35' E 140°06'  
Track history (hours):
 
Tides and Currents Weather Stations Pressure Air Temp Water Temp Dewpoint Dewpoint Depression Visibility Wind Speed Wind Dir Waves Ship Positions

Maratha Paramount

Last reported at 2018-Mar-30 12:26 UTC. Time now 2018-Apr-24 14:26 UTC.
Position N 33°42' E 135°04'.
Warning: this ship's position is 25 days out of date.

Length 175 m; draft 7.6 m.

Type: Cargo ship. MMSI: 538003632.

Date/timePositionNaut miles runAvg speedWind from/ knotsBaromVisibWave heightAir tempDewpointWater temp
2018-Mar-30 12:26N 33°42' E 135°04'614.5
2018-Mar-30 12:00N 33°47' E 134°59'714.3
2018-Mar-30 11:30N 33°54' E 134°58'714.2
2018-Mar-30 11:00N 34°01' E 134°57'714.1
2018-Mar-30 10:30N 34°08' E 134°58'611.9
2018-Mar-30 10:00N 34°14' E 134°58'510.5
2018-Mar-30 09:31N 34°19' E 134°59'612.5
2018-Mar-30 09:00N 34°24' E 135°03'713.6
2018-Mar-30 08:31N 34°28' E 135°09'713.5
2018-Mar-30 08:00N 34°33' E 135°16'612.3
2018-Mar-30 07:30N 34°37' E 135°21'3 5.6
2018-Mar-30 06:59N 34°38' E 135°25'0 0.0
2018-Mar-30 06:29N 34°38' E 135°25'0 0.0
2018-Mar-30 05:59N 34°38' E 135°25'0 0.0
2018-Mar-30 05:29N 34°38' E 135°25'0 0.0
2018-Mar-30 04:59N 34°38' E 135°25'0 0.0
2018-Mar-30 04:29N 34°38' E 135°25'0 0.0
2018-Mar-30 03:59N 34°38' E 135°25'0 0.0
2018-Mar-30 03:29N 34°38' E 135°25'0 0.0
2018-Mar-30 02:59N 34°38' E 135°25'0 0.0
2018-Mar-30 02:29N 34°38' E 135°25'0 0.0
2018-Mar-30 01:59N 34°38' E 135°25'0 0.0
2018-Mar-30 01:29N 34°38' E 135°25'0 0.0
2018-Mar-30 00:59N 34°38' E 135°25'0 0.0
2018-Mar-30 00:29N 34°38' E 135°25'0 0.0
2018-Mar-29 23:59N 34°38' E 135°25'0 0.0
2018-Mar-29 23:29N 34°38' E 135°25'0 0.0
2018-Mar-29 22:59N 34°38' E 135°25'0 0.0
2018-Mar-29 22:29N 34°38' E 135°25'0 0.0
2018-Mar-29 21:59N 34°38' E 135°25'0 0.0
2018-Mar-29 21:29N 34°38' E 135°25'0 0.0
2018-Mar-29 20:59N 34°38' E 135°25'0 0.0
2018-Mar-29 20:29N 34°38' E 135°25'0 0.0
2018-Mar-29 19:59N 34°38' E 135°25'0 0.0
2018-Mar-29 19:29N 34°38' E 135°25'0 0.0
2018-Mar-29 18:59N 34°38' E 135°25'0 0.0
2018-Mar-29 18:29N 34°38' E 135°25'0 0.0
2018-Mar-29 17:59N 34°38' E 135°25'0 0.0
2018-Mar-29 17:29N 34°38' E 135°25'0 0.0
2018-Mar-29 16:59N 34°38' E 135°25'0 0.0
2018-Mar-29 16:29N 34°38' E 135°25'0 0.0
2018-Mar-29 15:59N 34°38' E 135°25'0 0.0
2018-Mar-29 15:29N 34°38' E 135°25'0 0.0
2018-Mar-29 14:59N 34°38' E 135°25'0 0.0
2018-Mar-29 14:29N 34°38' E 135°25'0 0.0
2018-Mar-29 13:59N 34°38' E 135°25'0 0.0
2018-Mar-29 13:29N 34°38' E 135°25'0 0.0
2018-Mar-29 12:59N 34°38' E 135°25'0 0.0
2018-Mar-29 12:29N 34°38' E 135°25'0 0.0
2018-Mar-29 11:59N 34°38' E 135°25'0 0.0
2018-Mar-29 11:29N 34°38' E 135°25'0 0.0
2018-Mar-29 10:59N 34°38' E 135°25'0 0.0
2018-Mar-29 10:29N 34°38' E 135°25'0 0.0
2018-Mar-29 09:59N 34°38' E 135°25'0 0.0
2018-Mar-29 09:29N 34°38' E 135°25'0 0.0
2018-Mar-29 08:59N 34°38' E 135°25'0 0.0
2018-Mar-29 08:29N 34°38' E 135°25'0 0.0
2018-Mar-29 07:59N 34°38' E 135°25'0 0.2
2018-Mar-29 07:30N 34°38' E 135°25'2 3.5
2018-Mar-29 07:01N 34°38' E 135°22'4 8.5
2018-Mar-29 06:30N 34°35' E 135°19'611.2
2018-Mar-29 06:00N 34°31' E 135°14'612.5
2018-Mar-29 05:30N 34°26' E 135°09'612.6
2018-Mar-29 05:00N 34°21' E 135°04'611.5
2018-Mar-29 04:31N 34°17' E 134°59'510.8
2018-Mar-29 04:00N 34°12' E 134°59'4 8.3
2018-Mar-29 03:30N 34°07' E 134°59'3 7.0
2018-Mar-29 03:01N 34°04' E 134°58'3 6.5
2018-Mar-29 02:30N 34°01' E 134°58'510.6
2018-Mar-29 02:00N 33°56' E 134°57'510.8
2018-Mar-29 01:31N 33°50' E 134°58'611.0
2018-Mar-29 01:00N 33°45' E 134°57'610.7
2018-Mar-29 00:26N 33°41' E 134°52'4 8.5
2018-Mar-28 23:59N 33°37' E 134°51'611.3
2018-Mar-28 23:28N 33°35' E 134°57'9110.2
2018-Mar-28 14:34N 33°60' E 136°43'112.8
2018-Mar-28 14:28N 34°01' E 136°44'1812.7
2018-Mar-28 13:04N 34°13' E 136°60'112.9
2018-Mar-28 12:59N 34°13' E 137°01'611.3
2018-Mar-28 12:30N 34°19' E 137°03'611.9
2018-Mar-28 11:58N 34°25' E 137°04'611.8
2018-Mar-28 11:28N 34°31' E 137°03'510.8
2018-Mar-28 10:58N 34°35' E 136°58'612.9
2018-Mar-28 10:30N 34°38' E 136°52'612.9
2018-Mar-28 10:00N 34°43' E 136°48'613.1
2018-Mar-28 09:30N 34°50' E 136°46'712.9
2018-Mar-28 09:00N 34°56' E 136°46'611.2
2018-Mar-28 08:30N 35°01' E 136°50'3 5.7
2018-Mar-28 08:00N 35°03' E 136°53'0 0.3
2018-Mar-28 07:30N 35°03' E 136°53'0 0.0
2018-Mar-28 07:00N 35°03' E 136°53'0 0.0
2018-Mar-28 06:29N 35°03' E 136°53'0 0.0
2018-Mar-28 05:59N 35°03' E 136°53'0 0.0
2018-Mar-28 05:29N 35°03' E 136°53'0 0.0
2018-Mar-28 04:59N 35°03' E 136°53'0 0.0
2018-Mar-28 04:29N 35°03' E 136°53'0 0.0
2018-Mar-28 03:59N 35°03' E 136°53'0 0.0
2018-Mar-28 03:29N 35°03' E 136°53'0 0.0
2018-Mar-28 02:53N 35°03' E 136°53'0 0.0
2018-Mar-28 02:20N 35°03' E 136°53'0 0.0
2018-Mar-28 01:59N 35°03' E 136°53'0 0.0
2018-Mar-28 01:26N 35°03' E 136°53'0 0.0
2018-Mar-28 00:59N 35°03' E 136°53'0 0.0
2018-Mar-28 00:29N 35°03' E 136°53'0 0.0
2018-Mar-27 23:59N 35°03' E 136°53'0 0.0
2018-Mar-27 23:29N 35°03' E 136°53'0 0.0
2018-Mar-27 22:59N 35°03' E 136°53'0 0.0
2018-Mar-27 22:29N 35°03' E 136°53'0 0.0
2018-Mar-27 21:59N 35°03' E 136°53'0 0.0
2018-Mar-27 21:26N 35°03' E 136°53'0 0.0
2018-Mar-27 20:59N 35°03' E 136°53'0 0.0
2018-Mar-27 20:29N 35°03' E 136°53'0 0.0
2018-Mar-27 19:59N 35°03' E 136°53'0 0.0
2018-Mar-27 19:29N 35°03' E 136°53'0 0.0
2018-Mar-27 18:59N 35°03' E 136°53'0 0.0
2018-Mar-27 18:29N 35°03' E 136°53'0 0.0
2018-Mar-27 17:59N 35°03' E 136°53'0 0.0
2018-Mar-27 17:29N 35°03' E 136°53'0 0.0
2018-Mar-27 16:59N 35°03' E 136°53'0 0.0
2018-Mar-27 16:29N 35°03' E 136°53'0 0.0
2018-Mar-27 15:59N 35°03' E 136°53'0 0.0
2018-Mar-27 15:29N 35°03' E 136°53'0 0.0
2018-Mar-27 14:59N 35°03' E 136°53'0 0.0
2018-Mar-27 14:29N 35°03' E 136°53'0 0.0
2018-Mar-27 13:59N 35°03' E 136°53'0 0.0
2018-Mar-27 13:29N 35°03' E 136°53'0 0.0
2018-Mar-27 12:59N 35°03' E 136°53'0 0.0
2018-Mar-27 12:29N 35°03' E 136°53'0 0.0
2018-Mar-27 11:59N 35°03' E 136°53'0 0.0
2018-Mar-27 11:29N 35°03' E 136°53'0 0.0
2018-Mar-27 10:59N 35°03' E 136°53'0 0.0
2018-Mar-27 10:29N 35°03' E 136°53'0 0.0
2018-Mar-27 09:53N 35°03' E 136°53'0 0.0
2018-Mar-27 09:29N 35°03' E 136°53'0 0.0
2018-Mar-27 08:59N 35°03' E 136°53'0 0.0
2018-Mar-27 08:29N 35°03' E 136°53'0 0.0
2018-Mar-27 07:59N 35°03' E 136°53'0 0.0
2018-Mar-27 07:29N 35°03' E 136°53'0 0.0
2018-Mar-27 06:56N 35°03' E 136°53'0 0.0
2018-Mar-27 06:29N 35°03' E 136°53'0 0.0
2018-Mar-27 05:59N 35°03' E 136°53'0 0.0
2018-Mar-27 05:29N 35°03' E 136°53'0 0.0
2018-Mar-27 04:56N 35°03' E 136°53'0 0.0
2018-Mar-27 04:29N 35°03' E 136°53'0 0.0
2018-Mar-27 03:59N 35°03' E 136°53'0 0.0
2018-Mar-27 03:29N 35°03' E 136°53'0 0.0
2018-Mar-27 02:59N 35°03' E 136°53'0 0.0
2018-Mar-27 02:26N 35°03' E 136°53'0 0.0
2018-Mar-27 01:59N 35°03' E 136°53'0 0.0
2018-Mar-27 01:29N 35°03' E 136°53'0 0.0
2018-Mar-27 00:59N 35°03' E 136°53'0 0.0
2018-Mar-27 00:29N 35°03' E 136°53'0 0.0
2018-Mar-26 23:59N 35°03' E 136°53'0 0.0
2018-Mar-26 23:29N 35°03' E 136°53'0 0.0
2018-Mar-26 22:56N 35°03' E 136°53'0 0.0
2018-Mar-26 22:29N 35°03' E 136°53'0 0.0
2018-Mar-26 21:59N 35°03' E 136°53'0 0.0
2018-Mar-26 21:29N 35°03' E 136°53'0 0.0
2018-Mar-26 20:59N 35°03' E 136°53'0 0.0
2018-Mar-26 20:29N 35°03' E 136°53'0 0.0
2018-Mar-26 19:59N 35°03' E 136°53'0 0.0
2018-Mar-26 19:29N 35°03' E 136°53'0 0.0
2018-Mar-26 18:59N 35°03' E 136°53'0 0.0
2018-Mar-26 18:29N 35°03' E 136°53'0 0.0
2018-Mar-26 17:59N 35°03' E 136°53'0 0.0
2018-Mar-26 17:29N 35°03' E 136°53'0 0.0
2018-Mar-26 16:56N 35°03' E 136°53'0 0.0
2018-Mar-26 16:29N 35°03' E 136°53'0 0.0
2018-Mar-26 15:59N 35°03' E 136°53'0 0.0
2018-Mar-26 15:29N 35°03' E 136°53'0 0.0
2018-Mar-26 14:59N 35°03' E 136°53'0 0.0
2018-Mar-26 14:29N 35°03' E 136°53'0 0.0
2018-Mar-26 13:59N 35°03' E 136°53'0 0.0
2018-Mar-26 13:26N 35°03' E 136°53'0 0.0
2018-Mar-26 12:59N 35°03' E 136°53'0 0.0
2018-Mar-26 12:29N 35°03' E 136°53'0 0.0
2018-Mar-26 11:59N 35°03' E 136°53'0 0.0
2018-Mar-26 11:29N 35°03' E 136°53'0 0.0
2018-Mar-26 10:59N 35°03' E 136°53'0 0.0
2018-Mar-26 10:29N 35°03' E 136°53'0 0.0
2018-Mar-26 09:59N 35°03' E 136°53'0 0.0
2018-Mar-26 09:29N 35°03' E 136°53'0 0.0
2018-Mar-26 08:59N 35°03' E 136°53'0 0.0
2018-Mar-26 08:29N 35°03' E 136°53'0 0.0
2018-Mar-26 07:59N 35°03' E 136°53'0 0.0
2018-Mar-26 07:29N 35°03' E 136°53'0 0.0
2018-Mar-26 06:59N 35°03' E 136°53'0 0.0
2018-Mar-26 06:29N 35°03' E 136°53'0 0.0
2018-Mar-26 05:59N 35°03' E 136°53'0 0.0
2018-Mar-26 05:29N 35°03' E 136°53'0 0.0
2018-Mar-26 04:59N 35°03' E 136°53'0 0.0
2018-Mar-26 04:29N 35°03' E 136°53'0 0.0
2018-Mar-26 03:59N 35°03' E 136°53'0 0.0
2018-Mar-26 03:29N 35°03' E 136°53'0 0.0
2018-Mar-26 02:59N 35°03' E 136°53'0 0.0
2018-Mar-26 02:29N 35°03' E 136°53'0 0.0
2018-Mar-26 01:59N 35°03' E 136°53'0 0.0
2018-Mar-26 01:29N 35°03' E 136°53'0 0.0
2018-Mar-26 00:59N 35°03' E 136°53'0 0.0
2018-Mar-26 00:29N 35°03' E 136°53'0 0.0
2018-Mar-25 23:59N 35°03' E 136°53'0 0.0
2018-Mar-25 23:29N 35°03' E 136°53'0 0.0
2018-Mar-25 22:59N 35°03' E 136°53'0 0.0
2018-Mar-25 22:29N 35°03' E 136°53'0 0.0
2018-Mar-25 21:59N 35°03' E 136°53'0 0.0
2018-Mar-25 21:29N 35°03' E 136°53'0 0.0
2018-Mar-25 20:59N 35°03' E 136°53'0 0.0
2018-Mar-25 20:29N 35°03' E 136°53'0 0.0
2018-Mar-25 19:59N 35°03' E 136°53'0 0.0
2018-Mar-25 19:29N 35°03' E 136°53'0 0.0
2018-Mar-25 18:59N 35°03' E 136°53'0 0.0
2018-Mar-25 18:29N 35°03' E 136°53'0 0.0
2018-Mar-25 17:59N 35°03' E 136°53'0 0.0
2018-Mar-25 17:29N 35°03' E 136°53'0 0.0
2018-Mar-25 16:59N 35°03' E 136°53'0 0.0
2018-Mar-25 16:29N 35°03' E 136°53'0 0.0
2018-Mar-25 15:59N 35°03' E 136°53'0 0.0
2018-Mar-25 15:29N 35°03' E 136°53'0 0.0
2018-Mar-25 14:59N 35°03' E 136°53'0 0.0
2018-Mar-25 14:26N 35°03' E 136°53'0 0.0
2018-Mar-25 13:59N 35°03' E 136°53'0 0.0
2018-Mar-25 13:29N 35°03' E 136°53'0 0.0
2018-Mar-25 12:59N 35°03' E 136°53'0 0.0
2018-Mar-25 12:29N 35°03' E 136°53'0 0.0
2018-Mar-25 11:59N 35°03' E 136°53'0 0.0
2018-Mar-25 11:29N 35°03' E 136°53'0 0.0
2018-Mar-25 10:59N 35°03' E 136°53'0 0.0
2018-Mar-25 10:29N 35°03' E 136°53'0 0.0
2018-Mar-25 09:59N 35°03' E 136°53'0 0.0
2018-Mar-25 09:29N 35°03' E 136°53'0 0.0
2018-Mar-25 08:59N 35°03' E 136°53'0 0.0
2018-Mar-25 08:29N 35°03' E 136°53'0 0.0
2018-Mar-25 07:59N 35°03' E 136°53'0 0.0
2018-Mar-25 07:29N 35°03' E 136°53'0 0.0
2018-Mar-25 06:59N 35°03' E 136°53'0 0.0
2018-Mar-25 06:29N 35°03' E 136°53'0 0.0
2018-Mar-25 05:59N 35°03' E 136°53'0 0.0
2018-Mar-25 05:29N 35°03' E 136°53'0 0.0
2018-Mar-25 04:59N 35°03' E 136°53'0 0.0
2018-Mar-25 04:29N 35°03' E 136°53'0 0.0
2018-Mar-25 03:59N 35°03' E 136°53'0 0.0
2018-Mar-25 03:29N 35°03' E 136°53'0 0.0
2018-Mar-25 02:59N 35°03' E 136°53'0 0.0
2018-Mar-25 02:29N 35°03' E 136°53'0 0.0
2018-Mar-25 01:59N 35°03' E 136°53'0 0.0
2018-Mar-25 01:29N 35°03' E 136°53'0 0.0
2018-Mar-25 00:59N 35°03' E 136°53'0 0.0
2018-Mar-25 00:29N 35°03' E 136°53'0 0.1
2018-Mar-24 23:59N 35°03' E 136°53'0 0.1
2018-Mar-24 23:28N 35°03' E 136°53'0 0.0
2018-Mar-24 22:58N 35°03' E 136°53'0 0.0
2018-Mar-24 22:28N 35°03' E 136°53'0 0.0
2018-Mar-24 21:58N 35°03' E 136°53'0 0.0
2018-Mar-24 21:28N 35°03' E 136°53'0 0.0
2018-Mar-24 20:58N 35°03' E 136°53'0 0.0
2018-Mar-24 20:28N 35°03' E 136°53'0 0.0
2018-Mar-24 19:58N 35°03' E 136°53'0 0.0
2018-Mar-24 19:28N 35°03' E 136°53'0 0.0
2018-Mar-24 18:58N 35°03' E 136°53'0 0.0
2018-Mar-24 18:28N 35°03' E 136°53'0 0.0
2018-Mar-24 17:58N 35°03' E 136°53'0 0.0
2018-Mar-24 17:28N 35°03' E 136°53'0 0.0
2018-Mar-24 16:58N 35°03' E 136°53'0 0.0
2018-Mar-24 16:28N 35°03' E 136°53'0 0.0
2018-Mar-24 15:58N 35°03' E 136°53'0 0.0
2018-Mar-24 15:28N 35°03' E 136°53'0 0.0
2018-Mar-24 14:58N 35°03' E 136°53'0 0.1
2018-Mar-24 14:28N 35°03' E 136°53'0 0.0
2018-Mar-24 13:58N 35°03' E 136°53'0 0.0
2018-Mar-24 13:28N 35°03' E 136°53'0 0.0
2018-Mar-24 12:58N 35°03' E 136°53'0 0.0
2018-Mar-24 12:28N 35°03' E 136°53'0 0.0
2018-Mar-24 11:58N 35°03' E 136°53'0 0.0
2018-Mar-24 11:28N 35°03' E 136°53'0 0.0
2018-Mar-24 10:58N 35°03' E 136°53'0 0.0
2018-Mar-24 10:28N 35°03' E 136°53'0 0.0
2018-Mar-24 09:58N 35°03' E 136°53'0 0.0
2018-Mar-24 09:28N 35°03' E 136°53'0 0.0
2018-Mar-24 08:55N 35°03' E 136°53'0 0.0
2018-Mar-24 08:28N 35°03' E 136°53'0 0.0
2018-Mar-24 07:58N 35°03' E 136°53'0 0.0
2018-Mar-24 07:28N 35°03' E 136°53'0 0.0
2018-Mar-24 06:58N 35°03' E 136°53'0 0.0
2018-Mar-24 06:28N 35°03' E 136°53'0 0.0
2018-Mar-24 05:58N 35°03' E 136°53'0 0.0
2018-Mar-24 05:25N 35°03' E 136°53'0 0.0
2018-Mar-24 04:58N 35°03' E 136°53'0 0.0
2018-Mar-24 04:28N 35°03' E 136°53'0 0.0
2018-Mar-24 03:58N 35°03' E 136°53'0 0.0
2018-Mar-24 03:28N 35°03' E 136°53'0 0.0
2018-Mar-24 02:55N 35°03' E 136°53'0 0.0
2018-Mar-24 02:28N 35°03' E 136°53'0 0.0
2018-Mar-24 01:58N 35°03' E 136°53'0 0.0
2018-Mar-24 01:28N 35°03' E 136°53'0 0.0
2018-Mar-24 00:58N 35°03' E 136°53'0 0.0
2018-Mar-24 00:28N 35°03' E 136°53'0 0.0
2018-Mar-23 23:58N 35°03' E 136°53'0 0.0
2018-Mar-23 23:28N 35°03' E 136°53'0 0.0
2018-Mar-23 22:58N 35°03' E 136°53'0 0.0
2018-Mar-23 22:28N 35°03' E 136°53'0 0.0
2018-Mar-23 21:58N 35°03' E 136°53'0 0.0
2018-Mar-23 21:28N 35°03' E 136°53'0 0.0
2018-Mar-23 20:58N 35°03' E 136°53'0 0.0
2018-Mar-23 20:28N 35°03' E 136°53'0 0.0
2018-Mar-23 19:58N 35°03' E 136°53'0 0.0
2018-Mar-23 19:28N 35°03' E 136°53'0 0.0
2018-Mar-23 18:58N 35°03' E 136°53'0 0.0
2018-Mar-23 18:28N 35°03' E 136°53'0 0.0
2018-Mar-23 17:58N 35°03' E 136°53'0 0.0
2018-Mar-23 17:28N 35°03' E 136°53'0 0.0
2018-Mar-23 16:58N 35°03' E 136°53'0 0.0
2018-Mar-23 16:28N 35°03' E 136°53'0 0.0
2018-Mar-23 15:58N 35°03' E 136°53'0 0.0
2018-Mar-23 15:28N 35°03' E 136°53'0 0.0
2018-Mar-23 14:58N 35°03' E 136°53'0 0.0
2018-Mar-23 14:28N 35°03' E 136°53'0 0.0
2018-Mar-23 13:58N 35°03' E 136°53'0 0.0
2018-Mar-23 13:28N 35°03' E 136°53'0 0.0
2018-Mar-23 12:58N 35°03' E 136°53'0 0.0
2018-Mar-23 12:28N 35°03' E 136°53'0 0.0
2018-Mar-23 11:58N 35°03' E 136°53'0 0.0
2018-Mar-23 11:28N 35°03' E 136°53'0 0.0
2018-Mar-23 10:58N 35°03' E 136°53'0 0.2
2018-Mar-23 10:31N 35°03' E 136°53'3 6.1
2018-Mar-23 10:00N 35°00' E 136°50'611.3
2018-Mar-23 09:30N 34°55' E 136°47'510.2
2018-Mar-23 09:00N 34°50' E 136°47'612.1
2018-Mar-23 08:30N 34°45' E 136°50'612.4
2018-Mar-23 08:00N 34°39' E 136°54'612.4
2018-Mar-23 07:30N 34°35' E 136°59'611.6
2018-Mar-23 06:58N 34°32' E 137°06'5 6.8
2018-Mar-23 06:16N 34°29' E 137°10'2 4.9
2018-Mar-23 05:49N 34°28' E 137°13'2 4.8
2018-Mar-23 05:29N 34°27' E 137°15'3 5.5
2018-Mar-23 04:55N 34°28' E 137°18'2510.3
2018-Mar-23 02:30N 34°27' E 137°48'1011.8
2018-Mar-23 01:37N 34°27' E 138°01'412.4
2018-Mar-23 01:20N 34°27' E 138°05'512.2
2018-Mar-23 00:55N 34°27' E 138°11'612.2
2018-Mar-23 00:26N 34°28' E 138°19'611.6
2018-Mar-22 23:53N 34°27' E 138°26'510.8
2018-Mar-22 23:24N 34°27' E 138°33'410.0
2018-Mar-22 23:00N 34°27' E 138°37'510.0
2018-Mar-22 22:28N 34°27' E 138°44'4 9.7
2018-Mar-22 22:01N 34°27' E 138°49'5 9.8
2018-Mar-22 21:30N 34°29' E 138°55'510.0
2018-Mar-22 21:00N 34°32' E 138°60'5 9.5
2018-Mar-22 20:25N 34°36' E 139°04'410.4
2018-Mar-22 20:00N 34°40' E 139°07'610.9
2018-Mar-22 19:25N 34°45' E 139°12'511.2
2018-Mar-22 18:59N 34°48' E 139°16'510.2
2018-Mar-22 18:30N 34°52' E 139°20'510.2
2018-Mar-22 18:00N 34°55' E 139°25'510.7
2018-Mar-22 17:31N 34°57' E 139°31'611.0
2018-Mar-22 16:59N 35°00' E 139°37'612.0
2018-Mar-22 16:30N 35°04' E 139°42'612.6
2018-Mar-22 16:01N 35°10' E 139°45'510.3
2018-Mar-22 15:30N 35°15' E 139°46'611.6
2018-Mar-22 15:00N 35°20' E 139°43'511.1
2018-Mar-22 14:30N 35°25' E 139°44'611.5
2018-Mar-22 14:00N 35°28' E 139°50'611.5
2018-Mar-22 13:30N 35°32' E 139°56'4 7.9
2018-Mar-22 13:01N 35°34' E 139°60'0 0.1
2018-Mar-22 12:28N 35°34' E 139°60'0 0.0
2018-Mar-22 11:58N 35°34' E 139°60'0 0.0
2018-Mar-22 11:28N 35°34' E 139°60'0 0.0
2018-Mar-22 10:58N 35°34' E 139°60'0 0.0
2018-Mar-22 10:28N 35°34' E 139°60'0 0.0
2018-Mar-22 09:58N 35°34' E 139°60'0 0.0
2018-Mar-22 09:28N 35°34' E 139°60'0 0.0
2018-Mar-22 08:58N 35°34' E 139°60'0 0.0
2018-Mar-22 08:28N 35°34' E 139°60'0 0.0
2018-Mar-22 07:58N 35°34' E 139°60'0 0.0
2018-Mar-22 07:28N 35°34' E 139°60'0 0.0
2018-Mar-22 06:58N 35°34' E 139°60'0 0.0
2018-Mar-22 06:28N 35°34' E 139°60'0 0.0
2018-Mar-22 05:58N 35°34' E 139°60'0 0.0
2018-Mar-22 05:28N 35°34' E 139°60'0 0.0
2018-Mar-22 04:58N 35°34' E 139°60'0 0.0
2018-Mar-22 04:28N 35°34' E 139°60'0 0.0
2018-Mar-22 03:58N 35°34' E 139°60'0 0.0
2018-Mar-22 03:28N 35°34' E 139°60'0 0.1
2018-Mar-22 02:58N 35°34' E 139°60'0 0.0
2018-Mar-22 02:28N 35°34' E 139°60'0 0.0
2018-Mar-22 01:58N 35°34' E 139°60'0 0.0
2018-Mar-22 01:28N 35°34' E 139°60'0 0.0
2018-Mar-22 00:58N 35°34' E 139°60'0 0.0
2018-Mar-22 00:28N 35°34' E 139°60'0 0.0
2018-Mar-21 23:58N 35°34' E 139°60'0 0.0
2018-Mar-21 23:28N 35°34' E 139°60'0 0.1
2018-Mar-21 22:58N 35°34' E 139°60'0 0.0
2018-Mar-21 22:28N 35°34' E 139°60'0 0.0
2018-Mar-21 21:58N 35°34' E 139°60'0 0.0
2018-Mar-21 21:28N 35°34' E 139°60'0 0.1
2018-Mar-21 20:58N 35°34' E 139°60'0 0.0
2018-Mar-21 20:28N 35°34' E 139°60'0 0.0
2018-Mar-21 19:58N 35°34' E 139°60'0 0.1
2018-Mar-21 19:28N 35°34' E 139°60'0 0.0
2018-Mar-21 18:58N 35°34' E 139°60'0 0.0
2018-Mar-21 18:28N 35°34' E 139°60'0 0.0
2018-Mar-21 17:58N 35°34' E 139°60'0 0.0
2018-Mar-21 17:28N 35°34' E 139°60'0 0.1
2018-Mar-21 16:58N 35°34' E 139°59'0 0.0
2018-Mar-21 16:28N 35°34' E 139°59'0 0.0
2018-Mar-21 15:58N 35°34' E 139°59'0 0.0
2018-Mar-21 15:28N 35°34' E 139°59'0 0.1
2018-Mar-21 14:58N 35°34' E 139°60'0 0.1
2018-Mar-21 14:28N 35°34' E 139°59'0 0.1
2018-Mar-21 13:58N 35°34' E 139°60'0 0.1
2018-Mar-21 13:28N 35°34' E 139°59'0 0.0
2018-Mar-21 12:58N 35°34' E 139°59'0 0.1
2018-Mar-21 12:28N 35°34' E 139°60'0 0.1
2018-Mar-21 11:58N 35°34' E 139°59'0 0.1
2018-Mar-21 11:28N 35°34' E 139°60'0 0.1
2018-Mar-21 10:58N 35°34' E 139°59'0 0.0
2018-Mar-21 10:28N 35°34' E 139°59'0 0.0
2018-Mar-21 09:58N 35°34' E 139°59'0 0.0
2018-Mar-21 09:28N 35°34' E 139°59'0 0.1
2018-Mar-21 08:58N 35°34' E 139°60'0 0.1
2018-Mar-21 08:30N 35°34' E 139°59'0 0.1
2018-Mar-21 08:00N 35°34' E 139°60'0 0.1
2018-Mar-21 07:30N 35°34' E 139°59'0 0.0
2018-Mar-21 07:00N 35°34' E 139°59'0 0.1
2018-Mar-21 06:30N 35°34' E 139°60'0 0.1
2018-Mar-21 06:00N 35°34' E 139°59'0 0.0
2018-Mar-21 05:30N 35°34' E 139°59'0 0.0
2018-Mar-21 05:00N 35°34' E 139°59'0 0.1
2018-Mar-21 04:30N 35°34' E 139°59'0 0.2
2018-Mar-21 04:00N 35°34' E 139°60'1 2.8
2018-Mar-21 03:30N 35°34' E 140°01'4 8.6
2018-Mar-21 03:01N 35°35' E 140°06'0 0.5
2018-Mar-21 02:29N 35°35' E 140°06'0 0.0
2018-Mar-21 01:59N 35°35' E 140°06'0 0.0
2018-Mar-21 01:29N 35°35' E 140°06'0 0.0
2018-Mar-21 00:59N 35°35' E 140°06'0 0.0
2018-Mar-21 00:29N 35°35' E 140°06'0 0.0
2018-Mar-20 23:59N 35°35' E 140°06'0 0.0
2018-Mar-20 23:29N 35°35' E 140°06'0 0.0
2018-Mar-20 22:59N 35°35' E 140°06'0 0.0
2018-Mar-20 22:29N 35°35' E 140°06'0 0.0
2018-Mar-20 21:59N 35°35' E 140°06'0 0.0
2018-Mar-20 21:29N 35°35' E 140°06'0 0.0
2018-Mar-20 20:59N 35°35' E 140°06'0 0.0
2018-Mar-20 20:29N 35°35' E 140°06'0 0.0
2018-Mar-20 19:59N 35°35' E 140°06'0 0.0
2018-Mar-20 19:29N 35°35' E 140°06'0 0.0
2018-Mar-20 18:59N 35°35' E 140°06'0 0.0
2018-Mar-20 18:29N 35°35' E 140°06'0 0.0
2018-Mar-20 17:59N 35°35' E 140°06'0 0.0
2018-Mar-20 17:29N 35°35' E 140°06'0 0.0
2018-Mar-20 16:59N 35°35' E 140°06'0 0.0
2018-Mar-20 16:29N 35°35' E 140°06'0 0.0
2018-Mar-20 15:59N 35°35' E 140°06'0 0.0
2018-Mar-20 15:29N 35°35' E 140°06'0 0.0
2018-Mar-20 14:50N 35°35' E 140°06'0 0.0
2018-Mar-20 14:29N 35°35' E 140°06'0 0.0
2018-Mar-20 13:59N 35°35' E 140°06'0 0.0
2018-Mar-20 13:29N 35°35' E 140°06'0 0.0
2018-Mar-20 12:59N 35°35' E 140°06'0 0.0
2018-Mar-20 12:29N 35°35' E 140°06'  

Dump ship's entire track history